sensor_id;sensor_type;location;lat;lon;timestamp;P1;durP1;ratioP1;P2;durP2;ratioP2
34725;SDS011;20951;50.818;4.344;2023-03-14T00:02:17;10.82;;;2.05;;
34725;SDS011;20951;50.818;4.344;2023-03-14T00:04:42;9.95;;;2.28;;
34725;SDS011;20951;50.818;4.344;2023-03-14T00:07:10;9.20;;;2.08;;
34725;SDS011;20951;50.818;4.344;2023-03-14T00:09:36;9.25;;;1.80;;
34725;SDS011;20951;50.818;4.344;2023-03-14T00:12:02;11.88;;;2.05;;
34725;SDS011;20951;50.818;4.344;2023-03-14T00:14:29;13.07;;;2.00;;
34725;SDS011;20951;50.818;4.344;2023-03-14T00:16:57;10.07;;;2.00;;
34725;SDS011;20951;50.818;4.344;2023-03-14T00:19:23;13.82;;;2.33;;
34725;SDS011;20951;50.818;4.344;2023-03-14T00:21:48;10.98;;;2.17;;
34725;SDS011;20951;50.818;4.344;2023-03-14T00:24:14;10.18;;;2.38;;
34725;SDS011;20951;50.818;4.344;2023-03-14T00:26:40;12.55;;;2.38;;
34725;SDS011;20951;50.818;4.344;2023-03-14T00:29:06;9.02;;;2.33;;
34725;SDS011;20951;50.818;4.344;2023-03-14T00:31:32;12.15;;;1.90;;
34725;SDS011;20951;50.818;4.344;2023-03-14T00:33:57;9.13;;;1.70;;
34725;SDS011;20951;50.818;4.344;2023-03-14T00:36:23;10.80;;;2.00;;
34725;SDS011;20951;50.818;4.344;2023-03-14T00:38:50;11.15;;;2.20;;
34725;SDS011;20951;50.818;4.344;2023-03-14T00:41:20;11.70;;;2.00;;
34725;SDS011;20951;50.818;4.344;2023-03-14T00:43:47;8.88;;;1.98;;
34725;SDS011;20951;50.818;4.344;2023-03-14T00:46:14;10.90;;;2.13;;
34725;SDS011;20951;50.818;4.344;2023-03-14T00:48:41;12.18;;;1.92;;
34725;SDS011;20951;50.818;4.344;2023-03-14T00:51:07;13.32;;;2.38;;
34725;SDS011;20951;50.818;4.344;2023-03-14T00:53:37;17.08;;;2.90;;
34725;SDS011;20951;50.818;4.344;2023-03-14T00:56:04;15.55;;;2.83;;
34725;SDS011;20951;50.818;4.344;2023-03-14T00:58:32;16.48;;;2.80;;
34725;SDS011;20951;50.818;4.344;2023-03-14T01:01:15;13.82;;;2.80;;
34725;SDS011;20951;50.818;4.344;2023-03-14T01:03:43;13.43;;;2.90;;
34725;SDS011;20951;50.818;4.344;2023-03-14T01:08:38;14.30;;;3.13;;
34725;SDS011;20951;50.818;4.344;2023-03-14T01:11:08;11.98;;;2.63;;
34725;SDS011;20951;50.818;4.344;2023-03-14T01:13:35;10.93;;;2.80;;
34725;SDS011;20951;50.818;4.344;2023-03-14T01:16:02;11.85;;;2.08;;
34725;SDS011;20951;50.818;4.344;2023-03-14T01:18:30;16.55;;;2.80;;
34725;SDS011;20951;50.818;4.344;2023-03-14T01:20:56;13.57;;;2.42;;
34725;SDS011;20951;50.818;4.344;2023-03-14T01:23:22;12.85;;;2.60;;
34725;SDS011;20951;50.818;4.344;2023-03-14T01:25:48;10.95;;;2.45;;
34725;SDS011;20951;50.818;4.344;2023-03-14T01:28:14;11.90;;;2.53;;
34725;SDS011;20951;50.818;4.344;2023-03-14T01:30:41;13.10;;;2.90;;
34725;SDS011;20951;50.818;4.344;2023-03-14T01:33:06;12.75;;;2.53;;
34725;SDS011;20951;50.818;4.344;2023-03-14T01:35:32;16.70;;;2.88;;
34725;SDS011;20951;50.818;4.344;2023-03-14T01:37:58;15.18;;;2.58;;
34725;SDS011;20951;50.818;4.344;2023-03-14T01:40:24;12.00;;;2.67;;
34725;SDS011;20951;50.818;4.344;2023-03-14T01:43:05;10.48;;;2.00;;
34725;SDS011;20951;50.818;4.344;2023-03-14T01:48:26;8.82;;;2.38;;
34725;SDS011;20951;50.818;4.344;2023-03-14T01:50:56;7.68;;;1.65;;
34725;SDS011;20951;50.818;4.344;2023-03-14T01:53:24;9.10;;;1.40;;
34725;SDS011;20951;50.818;4.344;2023-03-14T01:55:50;11.18;;;1.80;;
34725;SDS011;20951;50.818;4.344;2023-03-14T01:58:18;11.27;;;1.60;;
34725;SDS011;20951;50.818;4.344;2023-03-14T02:00:45;6.95;;;1.42;;
34725;SDS011;20951;50.818;4.344;2023-03-14T02:03:15;8.30;;;1.50;;
34725;SDS011;20951;50.818;4.344;2023-03-14T02:05:46;6.68;;;1.27;;
34725;SDS011;20951;50.818;4.344;2023-03-14T02:08:16;7.22;;;1.23;;
34725;SDS011;20951;50.818;4.344;2023-03-14T02:10:45;5.53;;;1.13;;
34725;SDS011;20951;50.818;4.344;2023-03-14T02:13:15;7.97;;;1.45;;
34725;SDS011;20951;50.818;4.344;2023-03-14T02:15:43;8.20;;;1.15;;
34725;SDS011;20951;50.818;4.344;2023-03-14T02:18:09;7.18;;;1.70;;
34725;SDS011;20951;50.818;4.344;2023-03-14T02:20:46;7.03;;;1.02;;
34725;SDS011;20951;50.818;4.344;2023-03-14T02:23:15;5.80;;;1.33;;
34725;SDS011;20951;50.818;4.344;2023-03-14T02:25:46;6.75;;;1.30;;
34725;SDS011;20951;50.818;4.344;2023-03-14T02:28:20;7.80;;;1.50;;
34725;SDS011;20951;50.818;4.344;2023-03-14T02:30:46;10.38;;;1.48;;
34725;SDS011;20951;50.818;4.344;2023-03-14T02:33:13;10.10;;;1.65;;
34725;SDS011;20951;50.818;4.344;2023-03-14T02:35:44;6.68;;;1.13;;
34725;SDS011;20951;50.818;4.344;2023-03-14T02:38:26;9.15;;;1.52;;
34725;SDS011;20951;50.818;4.344;2023-03-14T02:40:54;9.02;;;1.80;;
34725;SDS011;20951;50.818;4.344;2023-03-14T02:43:20;9.07;;;2.38;;
34725;SDS011;20951;50.818;4.344;2023-03-14T02:45:46;14.10;;;2.88;;
34725;SDS011;20951;50.818;4.344;2023-03-14T02:48:18;12.65;;;3.10;;
34725;SDS011;20951;50.818;4.344;2023-03-14T02:50:45;14.80;;;3.55;;
34725;SDS011;20951;50.818;4.344;2023-03-14T02:53:14;15.82;;;3.70;;
34725;SDS011;20951;50.818;4.344;2023-03-14T02:55:49;16.10;;;4.25;;
34725;SDS011;20951;50.818;4.344;2023-03-14T02:58:16;15.85;;;5.00;;
34725;SDS011;20951;50.818;4.344;2023-03-14T03:00:47;13.38;;;4.47;;
34725;SDS011;20951;50.818;4.344;2023-03-14T03:03:16;17.55;;;5.10;;
34725;SDS011;20951;50.818;4.344;2023-03-14T03:05:49;18.10;;;5.10;;
34725;SDS011;20951;50.818;4.344;2023-03-14T03:08:16;18.58;;;4.57;;
34725;SDS011;20951;50.818;4.344;2023-03-14T03:10:51;17.60;;;4.43;;
34725;SDS011;20951;50.818;4.344;2023-03-14T03:13:17;17.85;;;4.63;;
34725;SDS011;20951;50.818;4.344;2023-03-14T03:15:46;15.18;;;4.97;;
34725;SDS011;20951;50.818;4.344;2023-03-14T03:18:11;17.27;;;5.15;;
34725;SDS011;20951;50.818;4.344;2023-03-14T03:20:37;17.30;;;5.18;;
34725;SDS011;20951;50.818;4.344;2023-03-14T03:23:03;22.00;;;5.40;;
34725;SDS011;20951;50.818;4.344;2023-03-14T03:25:32;18.90;;;5.22;;
34725;SDS011;20951;50.818;4.344;2023-03-14T03:27:58;13.52;;;5.10;;
34725;SDS011;20951;50.818;4.344;2023-03-14T03:30:27;21.75;;;5.80;;
34725;SDS011;20951;50.818;4.344;2023-03-14T03:32:53;20.30;;;6.40;;
34725;SDS011;20951;50.818;4.344;2023-03-14T03:35:18;19.73;;;6.88;;
34725;SDS011;20951;50.818;4.344;2023-03-14T03:37:47;18.65;;;7.10;;
34725;SDS011;20951;50.818;4.344;2023-03-14T03:40:13;21.13;;;6.88;;
34725;SDS011;20951;50.818;4.344;2023-03-14T03:42:38;16.75;;;7.60;;
34725;SDS011;20951;50.818;4.344;2023-03-14T03:45:04;20.17;;;7.55;;
34725;SDS011;20951;50.818;4.344;2023-03-14T03:47:34;17.35;;;7.93;;
34725;SDS011;20951;50.818;4.344;2023-03-14T03:49:59;19.67;;;7.00;;
34725;SDS011;20951;50.818;4.344;2023-03-14T03:52:28;18.98;;;6.72;;
34725;SDS011;20951;50.818;4.344;2023-03-14T03:54:54;16.85;;;6.47;;
34725;SDS011;20951;50.818;4.344;2023-03-14T03:57:23;15.63;;;5.65;;
34725;SDS011;20951;50.818;4.344;2023-03-14T03:59:49;15.55;;;6.55;;
34725;SDS011;20951;50.818;4.344;2023-03-14T04:02:14;16.13;;;5.50;;
34725;SDS011;20951;50.818;4.344;2023-03-14T04:04:40;16.63;;;5.85;;
34725;SDS011;20951;50.818;4.344;2023-03-14T04:07:09;18.95;;;6.18;;
34725;SDS011;20951;50.818;4.344;2023-03-14T04:09:38;18.42;;;6.43;;
34725;SDS011;20951;50.818;4.344;2023-03-14T04:12:04;17.58;;;7.03;;
34725;SDS011;20951;50.818;4.344;2023-03-14T04:14:33;17.05;;;6.63;;
34725;SDS011;20951;50.818;4.344;2023-03-14T04:16:58;17.73;;;6.78;;
34725;SDS011;20951;50.818;4.344;2023-03-14T04:19:24;22.42;;;7.35;;
34725;SDS011;20951;50.818;4.344;2023-03-14T04:21:50;16.67;;;6.68;;
34725;SDS011;20951;50.818;4.344;2023-03-14T04:24:16;14.85;;;6.32;;
34725;SDS011;20951;50.818;4.344;2023-03-14T04:26:42;16.27;;;6.53;;
34725;SDS011;20951;50.818;4.344;2023-03-14T04:29:08;19.58;;;6.63;;
34725;SDS011;20951;50.818;4.344;2023-03-14T04:31:36;16.23;;;6.47;;
34725;SDS011;20951;50.818;4.344;2023-03-14T04:34:02;16.67;;;6.43;;
34725;SDS011;20951;50.818;4.344;2023-03-14T04:36:28;16.20;;;5.97;;
34725;SDS011;20951;50.818;4.344;2023-03-14T04:38:55;11.82;;;6.13;;
34725;SDS011;20951;50.818;4.344;2023-03-14T04:41:24;14.88;;;6.38;;
34725;SDS011;20951;50.818;4.344;2023-03-14T04:43:50;15.38;;;6.82;;
34725;SDS011;20951;50.818;4.344;2023-03-14T04:46:15;14.20;;;6.10;;
34725;SDS011;20951;50.818;4.344;2023-03-14T04:48:41;14.55;;;6.53;;
34725;SDS011;20951;50.818;4.344;2023-03-14T04:51:07;16.08;;;6.30;;
34725;SDS011;20951;50.818;4.344;2023-03-14T04:53:33;13.38;;;6.03;;
34725;SDS011;20951;50.818;4.344;2023-03-14T04:56:00;12.43;;;5.57;;
34725;SDS011;20951;50.818;4.344;2023-03-14T04:58:26;13.60;;;5.57;;
34725;SDS011;20951;50.818;4.344;2023-03-14T05:00:52;14.90;;;7.05;;
34725;SDS011;20951;50.818;4.344;2023-03-14T05:03:18;12.05;;;5.20;;
34725;SDS011;20951;50.818;4.344;2023-03-14T05:05:49;11.43;;;4.90;;
34725;SDS011;20951;50.818;4.344;2023-03-14T05:08:20;10.55;;;4.78;;
34725;SDS011;20951;50.818;4.344;2023-03-14T05:10:51;10.43;;;3.67;;
34725;SDS011;20951;50.818;4.344;2023-03-14T05:13:18;10.10;;;3.67;;
34725;SDS011;20951;50.818;4.344;2023-03-14T05:15:44;7.65;;;4.00;;
34725;SDS011;20951;50.818;4.344;2023-03-14T05:18:13;7.60;;;3.55;;
34725;SDS011;20951;50.818;4.344;2023-03-14T05:20:39;9.65;;;3.63;;
34725;SDS011;20951;50.818;4.344;2023-03-14T05:23:05;8.50;;;3.92;;
34725;SDS011;20951;50.818;4.344;2023-03-14T05:25:30;9.27;;;4.25;;
34725;SDS011;20951;50.818;4.344;2023-03-14T05:27:56;7.43;;;3.88;;
34725;SDS011;20951;50.818;4.344;2023-03-14T05:30:22;7.85;;;3.78;;
34725;SDS011;20951;50.818;4.344;2023-03-14T05:32:48;8.45;;;3.80;;
34725;SDS011;20951;50.818;4.344;2023-03-14T05:35:14;10.57;;;3.85;;
34725;SDS011;20951;50.818;4.344;2023-03-14T05:37:40;8.20;;;4.00;;
34725;SDS011;20951;50.818;4.344;2023-03-14T05:40:06;7.45;;;4.18;;
34725;SDS011;20951;50.818;4.344;2023-03-14T05:42:35;6.80;;;4.45;;
34725;SDS011;20951;50.818;4.344;2023-03-14T05:45:01;8.20;;;4.47;;
34725;SDS011;20951;50.818;4.344;2023-03-14T05:47:27;7.05;;;4.35;;
34725;SDS011;20951;50.818;4.344;2023-03-14T05:49:53;9.50;;;4.90;;
34725;SDS011;20951;50.818;4.344;2023-03-14T05:52:19;8.10;;;4.90;;
34725;SDS011;20951;50.818;4.344;2023-03-14T05:54:45;9.68;;;4.35;;
34725;SDS011;20951;50.818;4.344;2023-03-14T05:57:10;10.73;;;4.60;;
34725;SDS011;20951;50.818;4.344;2023-03-14T05:59:36;7.68;;;4.22;;
34725;SDS011;20951;50.818;4.344;2023-03-14T06:02:02;8.65;;;4.22;;
34725;SDS011;20951;50.818;4.344;2023-03-14T06:04:28;8.23;;;4.25;;
34725;SDS011;20951;50.818;4.344;2023-03-14T06:06:54;7.55;;;3.92;;
34725;SDS011;20951;50.818;4.344;2023-03-14T06:09:20;6.43;;;4.07;;
34725;SDS011;20951;50.818;4.344;2023-03-14T06:11:49;7.43;;;4.30;;
34725;SDS011;20951;50.818;4.344;2023-03-14T06:14:15;11.82;;;4.60;;
34725;SDS011;20951;50.818;4.344;2023-03-14T06:16:41;9.88;;;4.68;;
34725;SDS011;20951;50.818;4.344;2023-03-14T06:19:07;9.30;;;4.75;;
34725;SDS011;20951;50.818;4.344;2023-03-14T06:21:33;5.47;;;3.95;;
34725;SDS011;20951;50.818;4.344;2023-03-14T06:23:58;12.98;;;5.28;;
34725;SDS011;20951;50.818;4.344;2023-03-14T06:26:24;10.43;;;4.88;;
34725;SDS011;20951;50.818;4.344;2023-03-14T06:28:50;9.23;;;4.50;;
34725;SDS011;20951;50.818;4.344;2023-03-14T06:31:19;10.48;;;4.85;;
34725;SDS011;20951;50.818;4.344;2023-03-14T06:33:45;9.57;;;5.30;;
34725;SDS011;20951;50.818;4.344;2023-03-14T06:36:10;9.20;;;5.82;;
34725;SDS011;20951;50.818;4.344;2023-03-14T06:38:36;9.40;;;5.18;;
34725;SDS011;20951;50.818;4.344;2023-03-14T06:41:03;7.50;;;4.65;;
34725;SDS011;20951;50.818;4.344;2023-03-14T06:43:31;9.35;;;4.93;;
34725;SDS011;20951;50.818;4.344;2023-03-14T06:45:58;9.80;;;5.03;;
34725;SDS011;20951;50.818;4.344;2023-03-14T06:48:24;8.80;;;4.53;;
34725;SDS011;20951;50.818;4.344;2023-03-14T06:50:49;5.47;;;2.78;;
34725;SDS011;20951;50.818;4.344;2023-03-14T06:53:16;7.07;;;2.15;;
34725;SDS011;20951;50.818;4.344;2023-03-14T06:55:54;6.47;;;2.83;;
34725;SDS011;20951;50.818;4.344;2023-03-14T06:58:20;6.68;;;2.88;;
34725;SDS011;20951;50.818;4.344;2023-03-14T07:00:50;9.38;;;3.63;;
34725;SDS011;20951;50.818;4.344;2023-03-14T07:03:17;7.10;;;4.63;;
34725;SDS011;20951;50.818;4.344;2023-03-14T07:05:46;7.45;;;3.08;;
34725;SDS011;20951;50.818;4.344;2023-03-14T07:08:11;3.92;;;1.50;;
34725;SDS011;20951;50.818;4.344;2023-03-14T07:10:37;6.03;;;1.90;;
34725;SDS011;20951;50.818;4.344;2023-03-14T07:13:05;6.38;;;2.25;;
34725;SDS011;20951;50.818;4.344;2023-03-14T07:15:31;6.28;;;2.10;;
34725;SDS011;20951;50.818;4.344;2023-03-14T07:17:57;5.38;;;2.00;;
34725;SDS011;20951;50.818;4.344;2023-03-14T07:20:23;7.38;;;2.38;;
34725;SDS011;20951;50.818;4.344;2023-03-14T07:22:49;6.00;;;2.40;;
34725;SDS011;20951;50.818;4.344;2023-03-14T07:25:16;6.97;;;2.78;;
34725;SDS011;20951;50.818;4.344;2023-03-14T07:27:45;6.30;;;2.92;;
34725;SDS011;20951;50.818;4.344;2023-03-14T07:30:13;6.82;;;3.17;;
34725;SDS011;20951;50.818;4.344;2023-03-14T07:32:47;6.10;;;2.92;;
34725;SDS011;20951;50.818;4.344;2023-03-14T07:35:13;8.93;;;3.83;;
34725;SDS011;20951;50.818;4.344;2023-03-14T07:37:41;8.07;;;3.95;;
34725;SDS011;20951;50.818;4.344;2023-03-14T07:40:07;6.43;;;3.22;;
34725;SDS011;20951;50.818;4.344;2023-03-14T07:42:44;6.57;;;3.83;;
34725;SDS011;20951;50.818;4.344;2023-03-14T07:45:20;8.02;;;3.10;;
34725;SDS011;20951;50.818;4.344;2023-03-14T07:47:49;7.55;;;3.13;;
34725;SDS011;20951;50.818;4.344;2023-03-14T07:50:23;8.63;;;3.58;;
34725;SDS011;20951;50.818;4.344;2023-03-14T07:52:52;10.30;;;3.80;;
34725;SDS011;20951;50.818;4.344;2023-03-14T07:55:28;7.25;;;4.18;;
34725;SDS011;20951;50.818;4.344;2023-03-14T07:58:01;8.38;;;4.53;;
34725;SDS011;20951;50.818;4.344;2023-03-14T08:00:27;9.85;;;4.30;;
34725;SDS011;20951;50.818;4.344;2023-03-14T08:03:03;9.95;;;4.72;;
34725;SDS011;20951;50.818;4.344;2023-03-14T08:05:39;9.50;;;4.70;;
34725;SDS011;20951;50.818;4.344;2023-03-14T08:08:15;9.15;;;4.75;;
34725;SDS011;20951;50.818;4.344;2023-03-14T08:10:48;9.65;;;5.65;;
34725;SDS011;20951;50.818;4.344;2023-03-14T08:13:14;9.73;;;5.25;;
34725;SDS011;20951;50.818;4.344;2023-03-14T08:15:47;11.40;;;5.45;;
34725;SDS011;20951;50.818;4.344;2023-03-14T08:18:20;11.57;;;5.20;;
34725;SDS011;20951;50.818;4.344;2023-03-14T08:20:56;7.68;;;4.60;;
34725;SDS011;20951;50.818;4.344;2023-03-14T08:23:27;9.63;;;4.15;;
34725;SDS011;20951;50.818;4.344;2023-03-14T08:26:03;9.18;;;4.15;;
34725;SDS011;20951;50.818;4.344;2023-03-14T08:28:32;8.88;;;4.43;;
34725;SDS011;20951;50.818;4.344;2023-03-14T08:31:05;10.13;;;4.63;;
34725;SDS011;20951;50.818;4.344;2023-03-14T08:33:31;12.07;;;4.57;;
34725;SDS011;20951;50.818;4.344;2023-03-14T08:36:02;11.68;;;4.18;;
34725;SDS011;20951;50.818;4.344;2023-03-14T08:38:31;9.30;;;3.20;;
34725;SDS011;20951;50.818;4.344;2023-03-14T08:41:01;8.02;;;3.25;;
34725;SDS011;20951;50.818;4.344;2023-03-14T08:43:29;7.57;;;2.90;;
34725;SDS011;20951;50.818;4.344;2023-03-14T08:46:08;11.25;;;3.42;;
34725;SDS011;20951;50.818;4.344;2023-03-14T08:48:36;10.30;;;3.80;;
34725;SDS011;20951;50.818;4.344;2023-03-14T08:51:11;9.27;;;3.95;;
34725;SDS011;20951;50.818;4.344;2023-03-14T08:53:42;11.68;;;4.43;;
34725;SDS011;20951;50.818;4.344;2023-03-14T08:56:29;14.10;;;4.38;;
34725;SDS011;20951;50.818;4.344;2023-03-14T08:59:05;10.48;;;4.18;;
34725;SDS011;20951;50.818;4.344;2023-03-14T09:01:42;12.85;;;4.30;;
34725;SDS011;20951;50.818;4.344;2023-03-14T09:04:18;15.13;;;3.97;;
34725;SDS011;20951;50.818;4.344;2023-03-14T09:06:53;13.37;;;3.70;;
34725;SDS011;20951;50.818;4.344;2023-03-14T09:09:29;9.63;;;3.30;;
34725;SDS011;20951;50.818;4.344;2023-03-14T09:12:13;10.13;;;3.47;;
34725;SDS011;20951;50.818;4.344;2023-03-14T09:14:46;9.95;;;3.60;;
34725;SDS011;20951;50.818;4.344;2023-03-14T09:17:15;12.73;;;4.13;;
34725;SDS011;20951;50.818;4.344;2023-03-14T09:19:51;11.93;;;4.05;;
34725;SDS011;20951;50.818;4.344;2023-03-14T09:22:33;12.18;;;3.97;;
34725;SDS011;20951;50.818;4.344;2023-03-14T09:25:11;16.50;;;3.83;;
34725;SDS011;20951;50.818;4.344;2023-03-14T09:27:47;13.30;;;3.50;;
34725;SDS011;20951;50.818;4.344;2023-03-14T09:30:15;11.82;;;3.58;;
34725;SDS011;20951;50.818;4.344;2023-03-14T09:32:49;18.30;;;3.60;;
34725;SDS011;20951;50.818;4.344;2023-03-14T09:35:15;10.65;;;3.28;;
34725;SDS011;20951;50.818;4.344;2023-03-14T09:37:53;18.65;;;3.78;;
34725;SDS011;20951;50.818;4.344;2023-03-14T09:40:19;19.98;;;3.20;;
34725;SDS011;20951;50.818;4.344;2023-03-14T09:43:03;13.80;;;3.22;;
34725;SDS011;20951;50.818;4.344;2023-03-14T09:45:39;9.93;;;3.13;;
34725;SDS011;20951;50.818;4.344;2023-03-14T09:48:34;13.23;;;3.20;;
34725;SDS011;20951;50.818;4.344;2023-03-14T09:51:01;8.90;;;2.83;;
34725;SDS011;20951;50.818;4.344;2023-03-14T09:53:56;12.45;;;3.60;;
34725;SDS011;20951;50.818;4.344;2023-03-14T09:56:26;10.75;;;3.40;;
34725;SDS011;20951;50.818;4.344;2023-03-14T10:01:41;8.35;;;2.72;;
34725;SDS011;20951;50.818;4.344;2023-03-14T10:04:15;10.20;;;3.08;;
34725;SDS011;20951;50.818;4.344;2023-03-14T10:07:00;11.90;;;2.92;;
34725;SDS011;20951;50.818;4.344;2023-03-14T10:09:51;12.93;;;3.55;;
34725;SDS011;20951;50.818;4.344;2023-03-14T10:12:21;13.85;;;3.05;;
34725;SDS011;20951;50.818;4.344;2023-03-14T10:15:10;14.65;;;3.08;;
34725;SDS011;20951;50.818;4.344;2023-03-14T10:17:49;12.48;;;3.00;;
34725;SDS011;20951;50.818;4.344;2023-03-14T10:25:44;8.63;;;2.28;;
34725;SDS011;20951;50.818;4.344;2023-03-14T10:28:26;10.02;;;2.47;;
34725;SDS011;20951;50.818;4.344;2023-03-14T10:31:06;11.05;;;2.65;;
34725;SDS011;20951;50.818;4.344;2023-03-14T10:33:42;12.57;;;4.03;;
34725;SDS011;20951;50.818;4.344;2023-03-14T10:36:40;15.20;;;3.83;;
34725;SDS011;20951;50.818;4.344;2023-03-14T10:39:22;11.88;;;2.85;;
34725;SDS011;20951;50.818;4.344;2023-03-14T10:41:55;11.05;;;2.30;;
34725;SDS011;20951;50.818;4.344;2023-03-14T10:44:37;13.57;;;2.90;;
34725;SDS011;20951;50.818;4.344;2023-03-14T10:47:14;11.88;;;2.45;;
34725;SDS011;20951;50.818;4.344;2023-03-14T10:49:45;8.02;;;2.30;;
34725;SDS011;20951;50.818;4.344;2023-03-14T10:52:22;11.43;;;2.55;;
34725;SDS011;20951;50.818;4.344;2023-03-14T10:55:23;11.75;;;2.20;;
34725;SDS011;20951;50.818;4.344;2023-03-14T10:57:55;11.93;;;2.70;;
34725;SDS011;20951;50.818;4.344;2023-03-14T11:00:23;11.77;;;2.70;;
34725;SDS011;20951;50.818;4.344;2023-03-14T11:08:45;16.52;;;3.03;;
34725;SDS011;20951;50.818;4.344;2023-03-14T11:11:19;9.20;;;2.60;;
34725;SDS011;20951;50.818;4.344;2023-03-14T11:22:37;8.82;;;2.60;;
34725;SDS011;20951;50.818;4.344;2023-03-14T11:25:21;11.80;;;3.30;;
34725;SDS011;20951;50.818;4.344;2023-03-14T11:28:37;8.32;;;2.05;;
34725;SDS011;20951;50.818;4.344;2023-03-14T11:31:15;5.35;;;1.60;;
34725;SDS011;20951;50.818;4.344;2023-03-14T11:37:17;3.63;;;1.60;;
34725;SDS011;20951;50.818;4.344;2023-03-14T11:42:15;3.60;;;1.17;;
34725;SDS011;20951;50.818;4.344;2023-03-14T11:45:00;4.65;;;1.35;;
34725;SDS011;20951;50.818;4.344;2023-03-14T11:47:32;4.57;;;1.17;;
34725;SDS011;20951;50.818;4.344;2023-03-14T11:55:42;6.13;;;1.10;;
34725;SDS011;20951;50.818;4.344;2023-03-14T11:58:35;4.55;;;1.20;;
34725;SDS011;20951;50.818;4.344;2023-03-14T12:01:11;4.00;;;1.40;;
34725;SDS011;20951;50.818;4.344;2023-03-14T12:04:34;3.88;;;1.35;;
34725;SDS011;20951;50.818;4.344;2023-03-14T12:06:49;5.35;;;1.15;;
34725;SDS011;20951;50.818;4.344;2023-03-14T12:09:16;5.80;;;1.30;;
34725;SDS011;20951;50.818;4.344;2023-03-14T12:11:50;5.78;;;1.33;;
34725;SDS011;20951;50.818;4.344;2023-03-14T12:14:26;2.78;;;1.13;;
34725;SDS011;20951;50.818;4.344;2023-03-14T12:17:17;6.20;;;1.50;;
34725;SDS011;20951;50.818;4.344;2023-03-14T12:20:25;5.82;;;1.80;;
34725;SDS011;20951;50.818;4.344;2023-03-14T12:22:53;5.40;;;2.10;;
34725;SDS011;20951;50.818;4.344;2023-03-14T12:25:28;5.40;;;2.35;;
34725;SDS011;20951;50.818;4.344;2023-03-14T12:30:27;6.32;;;2.58;;
34725;SDS011;20951;50.818;4.344;2023-03-14T12:35:39;6.72;;;3.17;;
34725;SDS011;20951;50.818;4.344;2023-03-14T12:38:12;5.53;;;2.80;;
34725;SDS011;20951;50.818;4.344;2023-03-14T12:40:46;5.72;;;3.33;;
34725;SDS011;20951;50.818;4.344;2023-03-14T12:43:24;4.53;;;2.42;;
34725;SDS011;20951;50.818;4.344;2023-03-14T12:46:14;6.60;;;2.85;;
34725;SDS011;20951;50.818;4.344;2023-03-14T12:49:03;5.20;;;2.60;;
34725;SDS011;20951;50.818;4.344;2023-03-14T12:51:40;6.25;;;2.67;;
34725;SDS011;20951;50.818;4.344;2023-03-14T13:00:13;5.00;;;2.40;;
34725;SDS011;20951;50.818;4.344;2023-03-14T13:06:13;5.43;;;2.40;;
34725;SDS011;20951;50.818;4.344;2023-03-14T13:11:54;10.30;;;3.30;;
34725;SDS011;20951;50.818;4.344;2023-03-14T13:14:22;7.63;;;2.50;;
34725;SDS011;20951;50.818;4.344;2023-03-14T13:17:00;7.13;;;2.83;;
34725;SDS011;20951;50.818;4.344;2023-03-14T13:19:27;5.65;;;3.15;;
34725;SDS011;20951;50.818;4.344;2023-03-14T13:22:03;7.90;;;3.03;;
34725;SDS011;20951;50.818;4.344;2023-03-14T13:24:34;6.95;;;3.20;;
34725;SDS011;20951;50.818;4.344;2023-03-14T13:27:01;9.50;;;3.40;;
34725;SDS011;20951;50.818;4.344;2023-03-14T13:29:32;10.30;;;3.50;;
34725;SDS011;20951;50.818;4.344;2023-03-14T13:32:15;8.65;;;3.97;;
34725;SDS011;20951;50.818;4.344;2023-03-14T13:37:21;10.38;;;2.38;;
34725;SDS011;20951;50.818;4.344;2023-03-14T13:39:52;16.50;;;2.83;;
34725;SDS011;20951;50.818;4.344;2023-03-14T13:42:20;17.83;;;3.33;;
34725;SDS011;20951;50.818;4.344;2023-03-14T13:44:51;12.48;;;3.35;;
34725;SDS011;20951;50.818;4.344;2023-03-14T13:47:20;14.70;;;3.08;;
34725;SDS011;20951;50.818;4.344;2023-03-14T13:49:48;13.57;;;3.03;;
34725;SDS011;20951;50.818;4.344;2023-03-14T13:54:56;15.82;;;3.28;;
34725;SDS011;20951;50.818;4.344;2023-03-14T13:57:48;14.27;;;3.35;;
34725;SDS011;20951;50.818;4.344;2023-03-14T14:00:23;22.45;;;3.50;;
34725;SDS011;20951;50.818;4.344;2023-03-14T14:02:55;23.20;;;4.47;;
34725;SDS011;20951;50.818;4.344;2023-03-14T14:05:34;15.75;;;2.95;;
34725;SDS011;20951;50.818;4.344;2023-03-14T14:08:19;21.52;;;3.47;;
34725;SDS011;20951;50.818;4.344;2023-03-14T14:10:47;24.13;;;3.83;;
34725;SDS011;20951;50.818;4.344;2023-03-14T14:13:25;14.43;;;2.55;;
34725;SDS011;20951;50.818;4.344;2023-03-14T14:16:01;18.80;;;3.40;;
34725;SDS011;20951;50.818;4.344;2023-03-14T14:18:31;22.45;;;3.78;;
34725;SDS011;20951;50.818;4.344;2023-03-14T14:20:59;17.38;;;3.90;;
34725;SDS011;20951;50.818;4.344;2023-03-14T14:23:35;21.95;;;3.35;;
34725;SDS011;20951;50.818;4.344;2023-03-14T14:26:04;20.63;;;3.20;;
34725;SDS011;20951;50.818;4.344;2023-03-14T14:28:34;21.65;;;3.42;;
34725;SDS011;20951;50.818;4.344;2023-03-14T14:34:01;19.00;;;3.05;;
34725;SDS011;20951;50.818;4.344;2023-03-14T14:36:38;18.02;;;2.83;;
34725;SDS011;20951;50.818;4.344;2023-03-14T14:39:18;17.23;;;2.83;;
34725;SDS011;20951;50.818;4.344;2023-03-14T14:41:59;13.17;;;2.80;;
34725;SDS011;20951;50.818;4.344;2023-03-14T14:44:41;18.05;;;3.30;;
34725;SDS011;20951;50.818;4.344;2023-03-14T14:57:17;9.27;;;1.48;;
34725;SDS011;20951;50.818;4.344;2023-03-14T15:00:02;10.00;;;1.55;;
34725;SDS011;20951;50.818;4.344;2023-03-14T15:05:20;6.63;;;0.75;;
34725;SDS011;20951;50.818;4.344;2023-03-14T15:07:55;3.83;;;0.80;;
34725;SDS011;20951;50.818;4.344;2023-03-14T15:10:33;4.57;;;0.90;;
34725;SDS011;20951;50.818;4.344;2023-03-14T15:13:10;6.03;;;1.10;;
34725;SDS011;20951;50.818;4.344;2023-03-14T15:15:41;5.45;;;1.27;;
34725;SDS011;20951;50.818;4.344;2023-03-14T15:18:14;7.95;;;1.05;;
34725;SDS011;20951;50.818;4.344;2023-03-14T15:20:42;6.53;;;1.30;;
34725;SDS011;20951;50.818;4.344;2023-03-14T15:23:12;5.40;;;0.90;;
34725;SDS011;20951;50.818;4.344;2023-03-14T15:25:39;5.38;;;1.15;;
34725;SDS011;20951;50.818;4.344;2023-03-14T15:28:26;2.25;;;0.80;;
34725;SDS011;20951;50.818;4.344;2023-03-14T15:30:54;4.18;;;1.15;;
34725;SDS011;20951;50.818;4.344;2023-03-14T15:33:22;5.13;;;1.75;;
34725;SDS011;20951;50.818;4.344;2023-03-14T15:35:49;4.40;;;1.45;;
34725;SDS011;20951;50.818;4.344;2023-03-14T15:38:16;4.43;;;1.30;;
34725;SDS011;20951;50.818;4.344;2023-03-14T15:40:51;6.75;;;1.35;;
34725;SDS011;20951;50.818;4.344;2023-03-14T15:43:18;5.72;;;1.40;;
34725;SDS011;20951;50.818;4.344;2023-03-14T15:45:44;7.72;;;2.10;;
34725;SDS011;20951;50.818;4.344;2023-03-14T15:48:19;3.97;;;1.20;;
34725;SDS011;20951;50.818;4.344;2023-03-14T15:50:53;5.00;;;1.10;;
34725;SDS011;20951;50.818;4.344;2023-03-14T15:53:19;5.97;;;1.67;;
34725;SDS011;20951;50.818;4.344;2023-03-14T15:55:45;5.38;;;1.90;;
34725;SDS011;20951;50.818;4.344;2023-03-14T15:58:15;4.93;;;1.45;;
34725;SDS011;20951;50.818;4.344;2023-03-14T16:00:42;4.90;;;1.40;;
34725;SDS011;20951;50.818;4.344;2023-03-14T16:03:11;4.10;;;1.20;;
34725;SDS011;20951;50.818;4.344;2023-03-14T16:05:38;5.60;;;1.48;;
34725;SDS011;20951;50.818;4.344;2023-03-14T16:08:04;6.55;;;1.58;;
34725;SDS011;20951;50.818;4.344;2023-03-14T16:10:30;5.50;;;1.48;;
34725;SDS011;20951;50.818;4.344;2023-03-14T16:12:56;5.10;;;1.17;;
34725;SDS011;20951;50.818;4.344;2023-03-14T16:15:22;6.05;;;1.30;;
34725;SDS011;20951;50.818;4.344;2023-03-14T16:17:52;9.43;;;1.67;;
34725;SDS011;20951;50.818;4.344;2023-03-14T16:20:18;12.40;;;1.95;;
34725;SDS011;20951;50.818;4.344;2023-03-14T16:22:45;4.03;;;1.20;;